Etusivu
METAR-TAF:

METAR-TAF

Lentoasemat :

Rapid City Regional Airport

Rapid City, Etelä-Dakota, Yhdysvallat

Leveyspiiri: 44-02-44N, Pituuspiiri: 103-03-14W, korkeus merenpinnasta: 976 m

Tämänhetkinen sää

Tämä raportti tehtiin 31 minuuttia sitten, kello 21.52 UTC
tyyntä
Lämpötila 9°C
Kosteus 40%
Ilmanpaine 1020 hPa
Näkyvyys: 16.1 km
selkeää

METAR: KRAP 282152Z 00000KT 10SM CLR 09/M04 A3011 RMK AO2 SLP215 T00941039 $

Aika: 15:23 (22:23 UTC)

Sääennuste

Tämä raportti tehtiin 5 tuntia ja 3 minuuttia sitten, kello 17.20 UTC
Ennuste voimassa 28. päivästä klo 18 UTC - 29. päivään klo 18 UTC
Tuuli 12 kn pohjoisen/luoteesta
Näkyvyys: 10 km
Hajanaisia pilviä 20000 ft:n korkeudessa
From 29. päivästä klo 0100 UTC
Tuuli 5 kn eri suunnista
Näkyvyys: 10 km
Hajanaisia pilviä 20000 ft:n korkeudessa

TAF: KRAP 281720Z 2818/2918 33012KT P6SM SCT200 FM290100 VRB05KT P6SM SCT200

Säähavainnot ja -ennusteet yli 4000 lentoasemalta (METAR- ja TAF-raportit).

Käytössä olevat sääasemat on merkitty karttaan keltaisilla ja punaisilla pisteillä.

Aseta hiiri pisteen päälle nähdäksesi sääaseman nimen.

Klikkaa sitten nähdäksesi säähavainnot ja -ennusteet.

Kartan vaihtaminen: klikkaa mustalla rastilla varustettuja vihreitä pisteitä, niin voit zoomata sisään; viivalla varustettua vihreää pistettä, niin voit zoomata ulos tai vihreitä nuolia, niin pääset viereisille kartoille.


METAR-TAF: